Time;durP1;ratioP1;P1;durP2;ratioP2;P2;SDS_P1;SDS_P2;PMS_P1;PMS_P2;Temp;Humidity;BMP_temperature;BMP_pressure;BME280_temperature;BME280_humidity;BME280_pressure;Samples;Min_cycle;Max_cycle;Signal;HPM_P1;HPM_P2
2022/05/19 00:01:22;;;;;;;5.38;1.83;;;;;;;13.94;94.16;101765.97;4949482;29;20036;-81
2022/05/19 00:03:47;;;;;;;7.40;2.33;;;;;;;13.89;94.83;101759.47;4920984;29;20056;-81
2022/05/19 00:06:13;;;;;;;7.00;2.10;;;;;;;13.99;95.27;101771.59;4923376;29;20112;-81
2022/05/19 00:08:39;;;;;;;7.95;2.13;;;;;;;13.93;95.72;101761.56;4937499;29;20031;-81
2022/05/19 00:11:10;;;;;;;7.97;1.95;;;;;;;13.93;96.52;101758.84;4954548;29;20024;-81
2022/05/19 00:13:36;;;;;;;6.88;2.22;;;;;;;13.94;96.98;101770.50;4953757;29;20107;-81
2022/05/19 00:16:01;;;;;;;6.22;1.98;;;;;;;13.99;97.24;101770.75;4937306;29;20051;-81
2022/05/19 00:18:26;;;;;;;5.38;2.10;;;;;;;13.94;97.48;101765.97;4937532;29;20039;-81
2022/05/19 00:20:52;;;;;;;7.03;1.90;;;;;;;13.97;97.69;101770.13;4936715;29;20035;-81
2022/05/19 00:23:18;;;;;;;5.03;1.80;;;;;;;13.95;97.81;101762.22;4953237;29;20028;-80
2022/05/19 00:25:44;;;;;;;3.13;1.80;;;;;;;13.94;98.04;101768.66;4936976;29;20027;-81
2022/05/19 00:28:10;;;;;;;6.90;1.70;;;;;;;13.87;97.75;101756.94;4935338;29;20111;-81
2022/05/19 00:30:37;;;;;;;5.70;1.95;;;;;;;13.93;97.41;101761.56;4937073;29;20024;-81
2022/05/19 00:33:03;;;;;;;3.97;1.80;;;;;;;13.85;97.20;101749.03;4937017;29;20024;-81
2022/05/19 00:35:29;;;;;;;5.22;1.70;;;;;;;13.94;97.03;101755.13;4953272;29;20067;-81
2022/05/19 00:37:54;;;;;;;3.58;1.80;;;;;;;13.89;96.71;101740.53;4953072;29;20418;-81
2022/05/19 00:40:22;;;;;;;7.25;1.80;;;;;;;14.00;96.22;101754.31;4936475;29;20050;-81
2022/05/19 00:42:48;;;;;;;6.10;2.10;;;;;;;13.91;95.91;101735.72;4922087;29;20036;-81
2022/05/19 00:45:16;;;;;;;5.50;1.92;;;;;;;13.79;95.60;101719.22;4936604;29;20040;-81
2022/05/19 00:47:52;;;;;;;6.32;1.73;;;;;;;14.00;95.15;101737.25;4953698;29;20047;-81
2022/05/19 00:50:28;;;;;;;6.80;2.15;;;;;;;13.95;94.98;101723.50;4931584;29;20028;-81
2022/05/19 00:53:01;;;;;;;7.43;2.20;;;;;;;14.01;94.65;101728.13;4955295;29;20031;-81
2022/05/19 00:55:40;;;;;;;2.40;1.40;;;;;;;14.05;94.12;101730.22;4957174;29;20066;-81
2022/05/19 00:58:13;;;;;;;4.85;1.63;;;;;;;13.96;94.05;101720.56;4935998;29;20087;-81
2022/05/19 01:00:40;;;;;;;3.63;1.77;;;;;;;14.03;94.16;101737.69;4936886;29;20170;-81
2022/05/19 01:03:05;;;;;;;4.35;1.70;;;;;;;14.02;93.43;101722.50;4923070;29;20028;-82
2022/05/19 01:05:38;;;;;;;5.05;1.88;;;;;;;14.02;93.33;101725.19;4921184;29;20054;-81
2022/05/19 01:08:25;;;;;;;6.88;1.83;;;;;;;14.02;93.19;101719.78;4935925;29;20024;-80
2022/05/19 01:10:52;;;;;;;7.93;1.50;;;;;;;13.91;92.89;101706.81;4935178;29;20034;-81
2022/05/19 01:13:18;;;;;;;5.10;1.60;;;;;;;14.01;92.63;101718.13;4935526;29;20023;-81
2022/05/19 01:15:47;;;;;;;2.78;1.48;;;;;;;14.00;92.25;101715.59;4952809;29;20040;-81
2022/05/19 01:18:15;;;;;;;5.85;1.85;;;;;;;13.98;92.06;101714.97;4935090;29;20023;-81
2022/05/19 01:20:42;;;;;;;7.38;2.03;;;;;;;13.97;91.85;101727.69;4950821;29;20027;-80
2022/05/19 01:23:18;;;;;;;5.35;2.00;;;;;;;13.56;91.45;101644.59;4937478;29;20021;-81
2022/05/19 01:25:59;;;;;;;4.40;1.60;;;;;;;13.97;90.99;101716.00;4939201;29;20023;-81
2022/05/19 01:28:26;;;;;;;3.80;1.63;;;;;;;13.96;90.71;101717.03;4936559;29;20043;-81
2022/05/19 01:30:51;;;;;;;3.25;1.55;;;;;;;13.97;90.43;101706.03;4956747;29;20027;-81
2022/05/19 01:33:17;;;;;;;3.78;1.55;;;;;;;13.93;89.97;101698.50;4942607;29;20051;-80
2022/05/19 01:35:42;;;;;;;4.28;1.65;;;;;;;13.90;90.03;101691.59;4952727;29;20083;-81
2022/05/19 01:38:21;;;;;;;4.63;1.35;;;;;;;13.92;89.63;101686.00;4953255;29;20047;-80
2022/05/19 01:41:12;;;;;;;2.67;1.67;;;;;;;14.04;89.11;101706.06;4943371;29;20030;-81
2022/05/19 01:43:42;;;;;;;5.22;1.50;;;;;;;14.05;88.96;101696.91;4934994;29;20043;-81
2022/05/19 01:46:21;;;;;;;5.97;1.70;;;;;;;14.02;88.61;101691.91;4933941;29;20102;-82
2022/05/19 01:49:24;;;;;;;3.50;1.63;;;;;;;14.07;88.15;101698.38;4950909;29;20367;-81
2022/05/19 01:52:07;;;;;;;5.25;1.50;;;;;;;13.76;88.30;101646.59;4873873;29;20025;-81
2022/05/19 01:55:08;;;;;;;3.50;1.55;;;;;;;14.10;87.94;101697.13;4945436;29;20039;-80
2022/05/19 01:57:57;;;;;;;4.30;1.70;;;;;;;13.91;87.65;101662.66;4885798;29;20047;-80
2022/05/19 02:00:26;;;;;;;6.97;1.63;;;;;;;14.12;87.72;101696.94;4949672;29;20024;-81
2022/05/19 02:03:05;;;;;;;3.63;1.70;;;;;;;14.16;87.39;101700.91;4932403;29;20047;-81
2022/05/19 02:06:08;;;;;;;3.75;1.70;;;;;;;14.20;87.36;101700.28;4915279;29;20039;-81
2022/05/19 02:08:39;;;;;;;5.78;1.80;;;;;;;14.10;86.98;101679.03;4932623;29;20035;-80
2022/05/19 02:11:10;;;;;;;3.47;1.42;;;;;;;14.17;86.65;101678.22;4916438;29;20023;-82
2022/05/19 02:13:44;;;;;;;4.15;1.45;;;;;;;14.31;86.70;101686.19;4951328;29;20031;-81
2022/05/19 02:16:13;;;;;;;6.97;2.00;;;;;;;14.29;86.56;101676.59;4950764;29;20020;-81
2022/05/19 02:18:40;;;;;;;7.82;1.83;;;;;;;14.35;86.25;101686.63;4933986;29;20043;-81
2022/05/19 02:21:06;;;;;;;5.32;1.67;;;;;;;14.31;86.38;101658.28;4918966;29;20066;-80
2022/05/19 02:23:34;;;;;;;3.05;1.50;;;;;;;14.32;86.04;101676.19;4934849;29;20027;-81
2022/05/19 02:25:59;;;;;;;5.18;1.70;;;;;;;14.33;85.88;101678.69;4950951;29;20051;-80
2022/05/19 02:28:33;;;;;;;6.85;1.50;;;;;;;14.34;86.10;101671.44;4934723;29;20031;-80
2022/05/19 02:30:59;;;;;;;5.15;1.63;;;;;;;14.18;85.94;101645.53;4933286;29;20038;-81
2022/05/19 02:33:25;;;;;;;3.63;1.60;;;;;;;14.09;86.00;101633.22;4918760;29;20040;-81
2022/05/19 02:35:51;;;;;;;4.95;1.23;;;;;;;14.30;85.77;101667.44;4923814;29;20035;-82
2022/05/19 02:38:19;;;;;;;4.80;1.73;;;;;;;14.25;85.66;101667.22;4955271;29;20028;-82
2022/05/19 02:40:46;;;;;;;4.13;1.98;;;;;;;14.28;85.73;101677.66;4936647;29;20023;-81
2022/05/19 02:43:13;;;;;;;4.25;1.60;;;;;;;14.30;85.54;101678.25;4920852;29;20047;-82
2022/05/19 02:45:40;;;;;;;3.63;1.58;;;;;;;14.26;85.36;101660.75;4937093;29;20032;-81
2022/05/19 02:48:07;;;;;;;3.35;1.60;;;;;;;14.35;85.07;101670.38;4955865;29;20047;-82
2022/05/19 02:50:33;;;;;;;7.00;1.90;;;;;;;14.32;85.71;101665.38;4956455;29;20024;-82
2022/05/19 02:52:58;;;;;;;5.68;1.73;;;;;;;14.26;85.79;101656.19;4924080;29;20042;-82
2022/05/19 02:55:24;;;;;;;6.22;2.00;;;;;;;14.18;86.19;101629.31;4940561;29;20062;-81
2022/05/19 02:57:50;;;;;;;4.55;1.70;;;;;;;14.06;86.04;101607.38;4939806;29;20079;-82
2022/05/19 03:00:19;;;;;;;8.20;1.70;;;;;;;14.06;85.89;101607.38;4939282;29;20118;-82
2022/05/19 03:02:45;;;;;;;7.30;1.80;;;;;;;14.19;86.19;101638.25;4938782;29;20028;-82
2022/05/19 03:05:14;;;;;;;5.20;1.80;;;;;;;14.13;86.20;101633.66;4923904;29;20047;-82
2022/05/19 03:07:39;;;;;;;5.38;2.10;;;;;;;14.20;85.96;101651.56;4940241;29;20028;-81
2022/05/19 03:10:06;;;;;;;5.65;1.73;;;;;;;14.24;86.24;101646.63;4956147;29;20078;-81
2022/05/19 03:12:33;;;;;;;8.27;1.92;;;;;;;14.13;86.07;101628.22;4906771;29;20083;-82
2022/05/19 03:14:59;;;;;;;5.40;1.73;;;;;;;14.12;86.01;101613.03;4924292;29;20102;-81
2022/05/19 03:17:24;;;;;;;6.55;1.70;;;;;;;14.25;85.73;101630.16;4939634;29;20071;-82
2022/05/19 03:19:53;;;;;;;4.82;1.95;;;;;;;14.35;85.70;101632.47;4940368;29;20027;-81
2022/05/19 03:22:19;;;;;;;4.85;1.80;;;;;;;14.43;85.76;101639.56;4939379;29;20084;-80
2022/05/19 03:24:44;;;;;;;5.03;1.60;;;;;;;14.44;85.59;101649.38;4956467;29;20044;-82
2022/05/19 03:27:10;;;;;;;5.22;1.90;;;;;;;14.47;85.33;101641.69;4956516;29;20031;-82
2022/05/19 03:29:35;;;;;;;4.80;1.67;;;;;;;14.29;85.22;101600.81;4939863;29;20099;-82
2022/05/19 03:32:01;;;;;;;5.53;1.70;;;;;;;14.42;84.80;101611.66;4939649;29;20244;-82
2022/05/19 03:34:26;;;;;;;5.82;2.00;;;;;;;14.39;85.24;101609.38;4926981;29;20062;-82
2022/05/19 03:36:52;;;;;;;4.60;1.70;;;;;;;14.41;85.29;101603.75;4942847;29;20040;-82
2022/05/19 03:39:18;;;;;;;5.22;1.80;;;;;;;14.38;84.92;101613.13;4960089;29;20032;-82
2022/05/19 03:41:43;;;;;;;5.47;1.73;;;;;;;14.59;85.38;101627.56;4944406;29;20016;-82
2022/05/19 03:44:09;;;;;;;5.00;1.90;;;;;;;14.54;85.55;101614.66;4932586;29;20039;-82
2022/05/19 03:46:36;;;;;;;4.20;1.80;;;;;;;14.55;85.51;101617.13;4943703;29;20016;-80
2022/05/19 03:49:02;;;;;;;7.22;1.50;;;;;;;14.47;85.17;101597.50;4937464;29;20023;-81
2022/05/19 03:51:30;;;;;;;5.30;2.05;;;;;;;14.69;85.50;101631.53;4922034;29;20027;-81
2022/05/19 03:53:56;;;;;;;3.95;1.80;;;;;;;14.71;85.02;101636.75;4957055;29;20019;-80
2022/05/19 03:56:23;;;;;;;5.07;1.73;;;;;;;14.76;85.31;101639.66;4923531;29;20054;-82
2022/05/19 03:58:49;;;;;;;6.22;1.98;;;;;;;14.55;85.06;101589.22;4943639;29;20031;-80
2022/05/19 04:01:17;;;;;;;4.75;1.92;;;;;;;14.84;84.97;101625.13;4955870;29;20401;-81
2022/05/19 04:03:43;;;;;;;4.60;2.00;;;;;;;14.88;85.08;101615.53;4924618;29;20035;-82
2022/05/19 04:06:08;;;;;;;5.82;1.90;;;;;;;14.81;84.81;101593.84;4957733;29;20466;-81
2022/05/19 04:08:34;;;;;;;5.05;1.90;;;;;;;14.98;84.82;101615.94;4945010;29;20067;-83
2022/05/19 04:11:00;;;;;;;3.17;1.73;;;;;;;15.07;84.57;101616.56;4944943;29;20024;-83
2022/05/19 04:13:26;;;;;;;6.78;2.08;;;;;;;15.16;83.90;101623.44;4928184;29;20007;-82
2022/05/19 04:15:52;;;;;;;3.95;2.10;;;;;;;15.24;83.99;101623.22;4917509;29;20111;-82
2022/05/19 04:18:17;;;;;;;4.47;1.70;;;;;;;15.28;83.77;101621.75;4956972;29;20039;-80
2022/05/19 04:20:43;;;;;;;5.13;2.05;;;;;;;15.18;83.91;101583.41;4920346;29;20043;-81
2022/05/19 04:23:09;;;;;;;2.80;1.73;;;;;;;15.28;83.37;101590.03;4932215;29;20032;-80
2022/05/19 04:25:35;;;;;;;3.85;1.88;;;;;;;15.41;83.06;101594.63;4931213;29;20028;-80
2022/05/19 04:28:02;;;;;;;3.97;1.90;;;;;;;15.48;82.55;101600.84;4920399;29;20068;-81
2022/05/19 04:30:27;;;;;;;2.80;1.92;;;;;;;15.56;82.34;101601.66;4937180;29;20023;-81
2022/05/19 04:32:53;;;;;;;6.32;2.30;;;;;;;15.63;82.17;101606.06;4953475;29;20032;-82
2022/05/19 04:35:19;;;;;;;5.90;2.42;;;;;;;15.64;82.16;101587.88;4939448;29;20028;-81
2022/05/19 04:37:45;;;;;;;6.85;2.30;;;;;;;15.68;82.46;101595.41;4916605;29;20035;-80
2022/05/19 04:40:12;;;;;;;4.18;2.33;;;;;;;15.54;82.31;101563.09;4919501;29;20024;-83
2022/05/19 04:42:38;;;;;;;6.05;2.10;;;;;;;15.66;81.75;101580.34;4941798;29;20032;-82
2022/05/19 04:45:04;;;;;;;9.07;2.10;;;;;;;15.68;81.63;101570.16;4922495;29;20032;-82
2022/05/19 04:47:30;;;;;;;8.48;2.13;;;;;;;15.83;81.92;101589.72;4954400;29;20058;-82
2022/05/19 04:49:55;;;;;;;5.00;2.20;;;;;;;15.87;81.98;101593.69;4939727;29;20052;-83
2022/05/19 04:52:21;;;;;;;6.70;2.25;;;;;;;15.81;81.49;101572.81;4939725;29;20027;-81
2022/05/19 04:54:47;;;;;;;6.18;2.50;;;;;;;15.95;81.26;101585.28;4940502;29;20505;-81
2022/05/19 04:57:13;;;;;;;5.70;2.03;;;;;;;16.01;81.23;101583.59;4924509;29;20028;-81
2022/05/19 04:59:39;;;;;;;7.53;2.00;;;;;;;16.09;81.15;101577.06;4924547;29;20032;-82
2022/05/19 05:02:06;;;;;;;6.53;2.15;;;;;;;16.18;80.57;101582.03;4942736;29;20035;-81
2022/05/19 05:04:32;;;;;;;5.50;2.20;;;;;;;16.08;80.19;101538.22;4944094;29;20079;-81
2022/05/19 05:06:57;;;;;;;6.35;2.20;;;;;;;16.34;79.74;101572.56;4944399;29;20019;-83
2022/05/19 05:09:24;;;;;;;4.88;2.30;;;;;;;16.47;79.48;101570.81;4960099;29;20025;-82
2022/05/19 05:11:49;;;;;;;5.63;2.22;;;;;;;16.17;78.88;101508.97;4915097;29;20047;-82
2022/05/19 05:14:16;;;;;;;5.75;1.98;;;;;;;16.65;78.93;101574.44;4925360;29;20100;-85
2022/05/19 05:16:43;;;;;;;3.13;1.77;;;;;;;16.74;78.48;101566.00;4933589;29;20028;-84
2022/05/19 05:21:47;;;;;;;7.55;2.00;;;;;;;16.29;77.19;101458.31;5175695;23;20063;-82
2022/05/19 05:24:13;;;;;;;8.98;2.53;;;;;;;16.14;76.78;101392.66;4918404;29;20068;-81
2022/05/19 05:26:39;;;;;;;6.90;2.13;;;;;;;17.25;76.05;101554.91;4916768;29;20040;-81
2022/05/19 05:29:04;;;;;;;7.25;2.20;;;;;;;16.07;75.39;101349.25;4926964;29;20477;-83
2022/05/19 05:31:30;;;;;;;8.45;2.15;;;;;;;16.32;75.57;101381.81;4929876;29;20036;-81
2022/05/19 05:33:55;;;;;;;5.28;2.40;;;;;;;16.88;75.25;101475.16;4934202;29;20036;-83
2022/05/19 05:36:21;;;;;;;7.97;2.20;;;;;;;17.63;74.46;101536.69;4937636;29;20034;-83
2022/05/19 05:38:47;;;;;;;4.78;2.30;;;;;;;17.22;73.59;101453.88;4937838;29;20035;-82
2022/05/19 05:41:21;;;;;;;7.20;2.15;;;;;;;17.90;73.45;101548.09;4918982;29;20057;-82
2022/05/19 05:43:47;;;;;;;7.13;2.10;;;;;;;16.48;72.74;101308.97;4920233;29;20060;-83
2022/05/19 05:46:15;;;;;;;5.85;2.30;;;;;;;18.06;72.38;101555.63;4937440;29;20035;-80
2022/05/19 05:48:43;;;;;;;3.88;2.20;;;;;;;18.01;72.30;101547.31;4933500;29;20028;-80
2022/05/19 05:51:10;;;;;;;3.30;2.17;;;;;;;18.22;71.32;101535.09;4929708;29;20435;-80
2022/05/19 05:53:37;;;;;;;9.15;2.25;;;;;;;18.38;71.09;101526.25;4931754;29;20046;-80
2022/05/19 05:56:04;;;;;;;5.10;2.15;;;;;;;18.23;70.83;101491.25;4931518;29;20058;-80
2022/05/19 05:58:30;;;;;;;7.22;2.55;;;;;;;18.48;70.21;101512.88;4931190;29;20036;-80
2022/05/19 06:00:55;;;;;;;5.68;2.28;;;;;;;18.61;69.99;101517.28;4912888;29;20050;-80
2022/05/19 06:03:21;;;;;;;5.97;2.30;;;;;;;18.53;70.67;101521.16;4927639;29;20101;-80
2022/05/19 06:05:47;;;;;;;4.88;2.40;;;;;;;18.38;71.22;101517.25;4920538;29;20027;-80
2022/05/19 06:08:12;;;;;;;5.32;2.40;;;;;;;18.32;71.52;101524.47;4910243;29;20024;-80
2022/05/19 06:10:38;;;;;;;5.18;2.60;;;;;;;18.30;71.68;101515.66;4930937;29;20054;-80
2022/05/19 06:13:04;;;;;;;7.22;2.33;;;;;;;18.32;71.01;101519.00;4929845;29;20051;-79
2022/05/19 06:15:30;;;;;;;8.98;2.20;;;;;;;18.42;71.50;101537.50;4926883;29;20028;-80
2022/05/19 06:17:55;;;;;;;7.50;2.33;;;;;;;18.31;71.32;101518.19;4906655;29;20132;-80
2022/05/19 06:20:21;;;;;;;3.92;2.40;;;;;;;18.42;71.39;101522.00;4929805;29;20036;-79
2022/05/19 06:22:47;;;;;;;5.03;2.30;;;;;;;18.41;71.79;101541.28;4890547;29;20101;-80
2022/05/19 06:25:18;;;;;;;4.93;2.38;;;;;;;18.42;71.83;101524.72;4928514;29;20047;-80
2022/05/19 06:27:44;;;;;;;8.77;2.50;;;;;;;18.57;71.76;101539.78;4928388;29;20035;-80
2022/05/19 06:30:12;;;;;;;5.72;2.10;;;;;;;18.51;71.99;101530.66;4925869;29;20043;-79
2022/05/19 06:32:39;;;;;;;4.50;2.38;;;;;;;18.49;71.87;101539.06;4925485;29;20053;-80
2022/05/19 06:35:06;;;;;;;4.35;2.35;;;;;;;18.69;71.42;101546.09;4909168;29;20035;-80
2022/05/19 06:37:32;;;;;;;5.00;2.47;;;;;;;18.90;70.79;101545.53;4926613;29;20040;-80
2022/05/19 06:39:57;;;;;;;6.45;2.55;;;;;;;18.66;70.53;101487.41;4922132;29;20024;-80
2022/05/19 06:42:23;;;;;;;4.55;2.28;;;;;;;19.03;70.40;101525.38;4923731;29;20470;-80
2022/05/19 06:44:48;;;;;;;6.15;2.38;;;;;;;19.14;69.74;101530.03;4921055;29;20122;-80
2022/05/19 06:47:14;;;;;;;7.38;2.75;;;;;;;19.04;69.99;101540.69;4909068;29;20031;-80
2022/05/19 06:49:45;;;;;;;6.05;2.63;;;;;;;18.98;70.29;101541.66;4906441;29;20032;-80
2022/05/19 06:52:19;;;;;;;8.40;2.80;;;;;;;19.01;70.68;101558.38;4920975;29;20039;-80
2022/05/19 06:54:49;;;;;;;5.28;2.47;;;;;;;19.01;71.07;101557.53;4912692;29;20031;-79
2022/05/19 06:57:17;;;;;;;5.70;2.53;;;;;;;18.95;71.84;101564.75;4921393;29;20382;-80
2022/05/19 06:59:43;;;;;;;5.10;2.50;;;;;;;18.81;72.24;101532.47;4926972;29;20063;-79
2022/05/19 07:02:09;;;;;;;6.57;2.70;;;;;;;19.11;71.65;101560.50;4910225;29;20036;-79
2022/05/19 07:04:36;;;;;;;6.28;2.53;;;;;;;19.07;72.21;101567.47;4921821;29;20087;-78
2022/05/19 07:07:02;;;;;;;4.97;2.65;;;;;;;19.13;72.70;101558.34;4924285;29;20132;-80
2022/05/19 07:09:28;;;;;;;7.65;2.97;;;;;;;19.04;73.44;101559.78;4922474;29;20032;-79
2022/05/19 07:11:54;;;;;;;8.48;2.80;;;;;;;19.08;74.44;101565.59;4921907;29;20082;-79
2022/05/19 07:14:19;;;;;;;9.27;3.53;;;;;;;19.18;74.41;101558.47;4935615;29;20031;-80
2022/05/19 07:16:48;;;;;;;7.45;3.05;;;;;;;19.60;73.50;101563.78;4908455;29;20583;-80
2022/05/19 07:21:57;;;;;;;8.00;3.50;;;;;;;19.97;72.90;101555.25;4905751;29;20119;-79
2022/05/19 07:24:23;;;;;;;6.85;3.00;;;;;;;19.93;72.73;101540.41;4906770;29;20092;-79
2022/05/19 07:26:52;;;;;;;8.82;3.10;;;;;;;19.96;73.15;101553.59;4908822;29;20031;-79
2022/05/19 07:29:18;;;;;;;7.07;3.40;;;;;;;19.90;74.01;101546.34;4925498;29;20058;-80
2022/05/19 07:31:46;;;;;;;7.45;3.03;;;;;;;19.91;74.40;101546.13;4923616;29;20099;-80
2022/05/19 07:34:13;;;;;;;13.35;3.42;;;;;;;19.83;74.40;101529.28;4926823;29;20028;-79
2022/05/19 07:36:39;;;;;;;7.72;3.10;;;;;;;19.81;74.29;101499.50;4906702;29;20064;-80
2022/05/19 07:39:04;;;;;;;7.25;3.42;;;;;;;19.96;74.54;101512.59;4924851;29;20039;-80
2022/05/19 07:41:31;;;;;;;6.68;3.40;;;;;;;19.99;74.37;101514.03;4923677;29;20510;-79
2022/05/19 07:44:00;;;;;;;12.98;4.03;;;;;;;20.13;74.05;101529.88;4921145;29;20175;-80
2022/05/19 07:46:27;;;;;;;10.63;3.45;;;;;;;20.23;73.30;101525.66;4924475;29;20020;-80
2022/05/19 07:48:54;;;;;;;9.15;3.40;;;;;;;20.16;73.52;101509.41;4925567;29;20091;-79
2022/05/19 07:51:25;;;;;;;8.27;3.30;;;;;;;20.35;73.35;101510.84;4925336;29;20032;-80
2022/05/19 07:53:51;;;;;;;10.25;3.20;;;;;;;20.51;73.06;101509.25;4925255;29;20021;-80
2022/05/19 07:56:16;;;;;;;9.05;3.50;;;;;;;20.60;72.53;101515.13;4925739;29;20032;-80
2022/05/19 07:58:42;;;;;;;8.70;3.60;;;;;;;20.64;73.08;101500.72;4912088;29;20054;-80
2022/05/19 08:01:07;;;;;;;10.32;3.45;;;;;;;20.68;72.80;101502.94;4935148;29;20043;-80
2022/05/19 08:03:33;;;;;;;6.82;3.42;;;;;;;20.85;71.86;101510.06;4935172;29;20051;-80
2022/05/19 08:05:59;;;;;;;9.27;3.78;;;;;;;20.84;71.49;101513.03;4926671;29;20448;-80
2022/05/19 08:08:25;;;;;;;9.20;3.60;;;;;;;20.91;71.80;101521.09;4928785;29;20231;-79
2022/05/19 08:11:01;;;;;;;8.07;3.20;;;;;;;20.98;71.58;101519.81;4928915;29;20120;-81
2022/05/19 08:16:10;;;;;;;6.65;3.35;;;;;;;20.79;72.12;101515.69;4933334;29;20068;-81
2022/05/19 08:18:36;;;;;;;8.02;3.35;;;;;;;20.84;71.64;101504.84;4918250;29;20040;-81
2022/05/19 08:21:05;;;;;;;7.50;3.42;;;;;;;20.82;72.00;101507.00;4932849;29;20060;-80
2022/05/19 08:23:34;;;;;;;8.48;3.53;;;;;;;20.97;71.88;101522.81;4931619;29;20413;-81
2022/05/19 08:26:01;;;;;;;7.45;3.38;;;;;;;21.01;71.72;101530.25;4932417;29;20043;-79
2022/05/19 08:28:30;;;;;;;9.73;3.45;;;;;;;20.95;71.84;101509.38;4918060;29;20067;-79
2022/05/19 08:31:05;;;;;;;8.63;3.20;;;;;;;21.13;70.99;101512.94;4922901;29;20031;-81
2022/05/19 08:33:32;;;;;;;8.00;3.20;;;;;;;21.34;70.91;101520.31;4923781;29;20028;-80
2022/05/19 08:35:57;;;;;;;9.18;3.47;;;;;;;21.20;72.02;101516.31;4921969;29;20035;-81
2022/05/19 08:38:23;;;;;;;6.32;3.30;;;;;;;21.28;70.89;101527.63;4935187;29;20044;-80
2022/05/19 08:40:52;;;;;;;8.55;3.83;;;;;;;21.06;71.61;101513.94;4927359;29;20028;-80
2022/05/19 08:43:22;;;;;;;9.48;3.58;;;;;;;21.33;71.66;101544.13;4929630;29;20027;-80
2022/05/19 08:45:53;;;;;;;9.25;3.70;;;;;;;21.27;71.18;101544.31;4929132;29;20016;-80
2022/05/19 08:48:21;;;;;;;10.80;4.00;;;;;;;21.11;71.16;101533.16;4924637;29;20064;-81
2022/05/19 08:51:00;;;;;;;10.50;4.43;;;;;;;20.83;71.51;101534.09;4926496;29;20543;-81
2022/05/19 08:53:29;;;;;;;11.23;4.07;;;;;;;20.61;72.47;101536.75;4940126;29;20051;-81
2022/05/19 08:56:00;;;;;;;8.35;4.45;;;;;;;20.52;72.82;101542.88;4935451;29;20024;-80
2022/05/19 08:58:46;;;;;;;11.02;4.28;;;;;;;20.12;74.50;101547.34;4920574;29;20372;-79
2022/05/19 09:01:34;;;;;;;9.05;5.10;;;;;;;19.89;75.77;101539.25;4920137;29;20028;-80
2022/05/19 09:04:38;;;;;;;10.07;4.82;;;;;;;19.90;76.56;101540.88;4918831;29;20029;-80
2022/05/19 09:10:11;;;;;;;10.05;4.50;;;;;;;20.13;77.53;101529.88;4923768;29;20127;-82
2022/05/19 09:12:38;;;;;;;11.40;4.28;;;;;;;20.48;76.24;101528.03;4926541;29;20521;-81
2022/05/19 09:15:07;;;;;;;11.32;4.70;;;;;;;20.55;74.99;101531.44;4928619;29;20024;-80
2022/05/19 09:17:37;;;;;;;11.23;4.72;;;;;;;20.37;75.40;101544.25;4922351;29;20043;-81
2022/05/19 09:20:09;;;;;;;10.52;4.80;;;;;;;20.53;75.61;101542.66;4928300;29;20052;-79
2022/05/19 09:22:34;;;;;;;12.45;5.22;;;;;;;20.41;75.21;101534.47;4925423;29;20430;-80
2022/05/19 09:25:07;;;;;;;10.43;4.30;;;;;;;20.27;75.75;101541.34;4926286;29;20056;-81
2022/05/19 09:27:37;;;;;;;8.82;4.03;;;;;;;20.61;75.75;101547.69;4930034;29;20020;-81
2022/05/19 09:30:04;;;;;;;8.90;4.25;;;;;;;20.82;74.37;101553.50;4929028;29;20033;-81
2022/05/19 09:32:35;;;;;;;11.30;4.53;;;;;;;20.79;75.83;101554.81;4926944;29;20447;-81
2022/05/19 09:35:10;;;;;;;8.38;4.30;;;;;;;20.90;74.25;101547.63;4927846;29;20028;-82
2022/05/19 09:37:38;;;;;;;12.80;3.90;;;;;;;20.85;74.29;101545.59;4928764;29;20493;-80
2022/05/19 09:40:12;;;;;;;8.10;4.22;;;;;;;20.75;74.09;101547.38;4932239;29;20036;-80
2022/05/19 09:42:54;;;;;;;;;;;;;;;20.55;74.71;101548.69;4932587;29;20079;-81
2022/05/19 09:45:22;;;;;;;9.15;4.22;;;;;;;20.42;75.11;101533.38;4931471;29;20364;-80
2022/05/19 09:47:52;;;;;;;9.50;4.97;;;;;;;20.63;75.88;101522.84;4932253;29;20028;-82
2022/05/19 09:50:23;;;;;;;11.07;4.30;;;;;;;20.84;74.32;101507.56;4936448;29;20020;-80
2022/05/19 09:52:49;;;;;;;11.07;4.47;;;;;;;20.33;74.60;101485.69;4930608;29;20449;-80
2022/05/19 09:55:20;;;;;;;9.68;4.78;;;;;;;19.83;77.00;101491.06;4932458;29;20089;-81
2022/05/19 09:57:54;;;;;;;9.65;4.75;;;;;;;19.51;79.89;101507.06;4922274;29;20028;-79
2022/05/19 10:00:32;;;;;;;11.50;4.20;;;;;;;19.20;82.85;101507.25;4918591;29;20068;-80
2022/05/19 10:02:59;;;;;;;11.77;5.35;;;;;;;18.78;84.14;101488.28;4915276;29;20035;-78
2022/05/19 10:05:25;;;;;;;13.98;5.05;;;;;;;18.75;86.44;101512.47;4915737;29;20028;-77
2022/05/19 10:07:57;;;;;;;10.65;5.78;;;;;;;18.10;88.22;101447.06;4917573;29;20032;-79
2022/05/19 10:10:31;;;;;;;10.07;5.03;;;;;;;18.32;89.68;101508.09;4917937;29;20420;-79
2022/05/19 10:13:02;;;;;;;9.23;4.95;;;;;;;18.31;90.61;101536.44;4925940;29;20020;-78
2022/05/19 10:15:51;;;;;;;13.43;5.18;;;;;;;18.31;92.08;101545.44;4928552;29;20055;-79
2022/05/19 10:18:28;;;;;;;10.10;4.85;;;;;;;18.24;93.86;101547.41;4923990;29;20043;-79
2022/05/19 10:21:08;;;;;;;11.55;6.43;;;;;;;18.19;94.93;101541.00;4926798;29;20061;-78
2022/05/19 10:24:01;;;;;;;15.45;6.47;;;;;;;18.24;94.77;101536.50;4915003;29;20084;-79
2022/05/19 10:31:02;;;;;;;10.98;6.20;;;;;;;18.44;94.29;101549.00;4916856;29;20458;-79
2022/05/19 10:33:10;;;;;;;12.32;5.93;;;;;;;18.05;97.50;101540.38;4914827;29;20119;-78
2022/05/19 10:35:58;;;;;;;11.90;6.95;;;;;;;17.73;100.00;101542.41;4913100;29;20043;-79
2022/05/19 10:38:37;;;;;;;11.63;6.13;;;;;;;17.52;100.00;101549.19;4920367;29;20028;-81
2022/05/19 10:41:27;;;;;;;12.93;6.88;;;;;;;17.67;100.00;101555.03;4914627;29;20036;-81
2022/05/19 10:44:02;;;;;;;13.10;6.65;;;;;;;17.89;100.00;101554.63;4928819;29;20479;-81
2022/05/19 10:46:39;;;;;;;13.07;5.82;;;;;;;17.96;100.00;101555.34;4912849;29;20051;-79
2022/05/19 10:49:16;;;;;;;12.23;5.35;;;;;;;18.16;100.00;101569.53;4915455;29;20044;-79
2022/05/19 10:51:55;;;;;;;13.90;6.43;;;;;;;18.23;100.00;101548.47;4909304;29;20032;-79
2022/05/19 10:54:44;;;;;;;13.70;6.25;;;;;;;17.99;100.00;101568.50;4913163;29;20035;-79
2022/05/19 10:57:29;;;;;;;15.02;6.30;;;;;;;17.84;100.00;101567.00;4917593;29;20028;-79
2022/05/19 11:00:10;;;;;;;13.55;6.45;;;;;;;17.70;100.00;101581.81;4912770;29;20408;-78
2022/05/19 11:03:13;;;;;;;14.50;6.97;;;;;;;17.68;100.00;101594.84;4913749;29;21897;-78
2022/05/19 11:05:59;;;;;;;14.88;8.02;;;;;;;17.77;100.00;101598.09;4911884;29;20039;-78
2022/05/19 11:08:43;;;;;;;16.77;10.10;;;;;;;17.89;100.00;101606.34;4913693;29;20032;-78
2022/05/19 11:11:18;;;;;;;14.80;10.90;;;;;;;17.83;100.00;101606.19;4915134;29;20032;-79
2022/05/19 11:14:05;;;;;;;22.95;11.50;;;;;;;17.86;100.00;101606.81;4918552;29;20031;-78
2022/05/19 11:16:55;;;;;;;20.23;12.07;;;;;;;17.65;100.00;101599.88;4919556;29;20032;-79
2022/05/19 11:19:42;;;;;;;20.60;12.90;;;;;;;17.54;100.00;101577.78;4917390;29;20099;-79
2022/05/19 11:22:12;;;;;;;18.17;12.02;;;;;;;17.68;100.00;101585.81;4916495;29;20123;-79
2022/05/19 11:27:40;;;;;;;22.80;15.18;;;;;;;17.65;100.00;101587.13;4916029;29;20099;-79
2022/05/19 11:30:14;;;;;;;29.25;18.85;;;;;;;17.60;100.00;101592.41;4917857;29;20115;-79
2022/05/19 11:32:42;;;;;;;27.92;19.13;;;;;;;17.35;100.00;101590.59;4916150;29;20076;-79
2022/05/19 11:35:35;;;;;;;37.00;22.55;;;;;;;17.38;100.00;101598.28;4916510;29;20071;-80
2022/05/19 11:38:23;;;;;;;33.30;22.70;;;;;;;17.32;100.00;101598.38;4912503;29;20060;-79
2022/05/19 11:40:52;;;;;;;43.15;27.20;;;;;;;17.18;100.00;101611.22;4919850;29;20034;-79
2022/05/19 11:43:43;;;;;;;40.58;25.02;;;;;;;17.13;100.00;101613.81;4921471;29;20474;-79
2022/05/19 11:46:20;;;;;;;58.10;34.05;;;;;;;16.66;100.00;101586.97;4917968;29;20032;-79
2022/05/19 11:57:42;;;;;;;54.58;32.25;;;;;;;16.34;100.00;101620.59;4914471;29;20084;-79
2022/05/19 12:00:13;;;;;;;50.08;31.13;;;;;;;16.38;100.00;101600.94;4918944;29;20160;-78
2022/05/19 12:02:48;;;;;;;54.25;32.45;;;;;;;16.43;100.00;101597.56;4918944;29;20442;-78